createdAt,value
2022-10-21T00:02:52.589Z,101253.88
2022-10-21T00:05:54.913Z,101247.47
2022-10-21T00:08:57.102Z,101250.72
2022-10-21T00:11:59.420Z,101248.56
2022-10-21T00:15:07.069Z,101251.34
2022-10-21T00:18:09.300Z,101244.94
2022-10-21T00:21:16.999Z,101248.06
2022-10-21T00:24:19.150Z,101238.53
2022-10-21T00:27:21.299Z,101242.03
2022-10-21T00:30:23.516Z,101234.72
2022-10-21T00:33:26.966Z,101224.28
2022-10-21T00:36:29.224Z,101226.66
2022-10-21T00:39:31.422Z,101225.88
2022-10-21T00:42:39.646Z,101227.78
2022-10-21T00:45:45.813Z,101215.78
2022-10-21T00:48:55.686Z,101214.25
2022-10-21T00:52:01.414Z,101203.81
2022-10-21T00:55:05.361Z,101200.31
2022-10-21T00:58:08.272Z,101193.63
2022-10-21T01:01:10.537Z,101211.78
2022-10-21T01:04:12.760Z,101206.72
2022-10-21T01:07:14.927Z,101202.94
2022-10-21T01:10:17.745Z,101197.44
2022-10-21T01:14:08.898Z,101193.19
2022-10-21T01:17:40.289Z,101190.84
2022-10-21T01:21:16.501Z,101196.91
2022-10-21T01:24:37.437Z,101202.63
2022-10-21T01:28:14.697Z,101200.59
2022-10-21T01:31:43.665Z,101199.41
2022-10-21T01:34:55.925Z,101198.19
2022-10-21T01:38:25.362Z,101186.97
2022-10-21T01:41:35.932Z,101175.34
2022-10-21T01:44:52.608Z,101171.06
2022-10-21T01:47:58.641Z,101169.88
2022-10-21T01:51:06.945Z,101168.28
2022-10-21T01:54:32.687Z,101157.53
2022-10-21T01:57:41.344Z,101150.59
2022-10-21T02:00:45.011Z,101153.97
2022-10-21T02:03:52.736Z,101157.00
2022-10-21T02:06:55.089Z,101162.72
2022-10-21T02:09:57.300Z,101162.72
2022-10-21T02:13:02.489Z,101161.13
2022-10-21T02:16:09.395Z,101158.00
2022-10-21T02:19:15.993Z,101170.66
2022-10-21T02:22:22.372Z,101179.44
2022-10-21T02:25:29.456Z,101186.72
2022-10-21T02:28:32.771Z,101183.59
2022-10-21T02:31:55.253Z,101180.44
2022-10-21T02:35:19.032Z,101177.31
2022-10-21T02:38:23.959Z,101172.28
2022-10-21T02:41:29.770Z,101175.31
2022-10-21T02:44:32.005Z,101184.50
2022-10-21T02:47:37.445Z,101183.69
2022-10-21T02:50:39.977Z,101178.31
2022-10-21T02:53:42.605Z,101179.13
2022-10-21T02:56:44.787Z,101170.69
2022-10-21T02:59:46.969Z,101168.44
2022-10-21T03:02:49.155Z,101161.97
2022-10-21T03:05:51.403Z,101165.88
2022-10-21T03:08:53.669Z,101162.84
2022-10-21T03:11:55.929Z,101167.53
2022-10-21T03:14:58.086Z,101172.69
2022-10-21T03:18:00.335Z,101173.91
2022-10-21T03:21:02.864Z,101175.25
2022-10-21T03:24:10.917Z,101175.34
2022-10-21T03:27:21.926Z,101171.19
2022-10-21T03:30:24.197Z,101159.75
2022-10-21T03:33:26.457Z,101168.81
2022-10-21T03:36:28.592Z,101168.56
2022-10-21T03:39:30.813Z,101156.34
2022-10-21T03:42:33.029Z,101144.06
2022-10-21T03:45:35.183Z,101157.19
2022-10-21T03:48:37.331Z,101149.91
2022-10-21T03:51:39.478Z,101160.75
2022-10-21T03:54:41.621Z,101155.38
2022-10-21T03:57:43.826Z,101152.69
2022-10-21T04:00:46.182Z,101136.91
2022-10-21T04:03:48.345Z,101135.00
2022-10-21T04:06:50.584Z,101137.22
2022-10-21T04:09:52.754Z,101134.09
2022-10-21T04:12:54.922Z,101142.53
2022-10-21T04:15:59.422Z,101131.34
2022-10-21T04:19:02.151Z,101128.97
2022-10-21T04:22:04.317Z,101123.50
2022-10-21T04:25:06.714Z,101116.56
2022-10-21T04:28:08.886Z,101125.31
2022-10-21T04:31:11.093Z,101118.38
2022-10-21T04:34:13.354Z,101121.41
2022-10-21T04:37:15.506Z,101123.66
2022-10-21T04:40:17.777Z,101114.34
2022-10-21T04:43:19.940Z,101118.19
2022-10-21T04:46:22.228Z,101104.31
2022-10-21T04:49:24.388Z,101100.41
2022-10-21T04:52:26.574Z,101094.59
2022-10-21T04:55:28.731Z,101094.13
2022-10-21T04:58:31.326Z,101088.31
2022-10-21T05:01:33.623Z,101086.75
2022-10-21T05:04:35.833Z,101083.59
2022-10-21T05:07:38.146Z,101090.13
2022-10-21T05:10:40.373Z,101098.50
2022-10-21T05:13:42.608Z,101096.19
2022-10-21T05:16:44.770Z,101100.34
2022-10-21T05:19:46.915Z,101109.97
2022-10-21T05:22:49.524Z,101108.41
2022-10-21T05:25:51.952Z,101101.78
2022-10-21T05:28:54.139Z,101098.31
2022-10-21T05:31:56.363Z,101087.91
2022-10-21T05:34:58.514Z,101082.13
2022-10-21T05:38:00.734Z,101080.53
2022-10-21T05:41:03.552Z,101094.09
2022-10-21T05:44:06.006Z,101101.00
2022-10-21T05:47:08.168Z,101111.19
2022-10-21T05:50:12.290Z,101111.03
2022-10-21T05:53:14.689Z,101105.84
2022-10-21T05:56:16.870Z,101088.94
2022-10-21T05:59:19.052Z,101092.66
2022-10-21T06:02:21.258Z,101100.41
2022-10-21T06:05:24.505Z,101115.94
2022-10-21T06:08:28.180Z,101121.50
2022-10-21T06:11:30.480Z,101142.09
2022-10-21T06:14:33.013Z,101152.25
2022-10-21T06:17:35.506Z,101144.28
2022-10-21T06:20:37.710Z,101136.41
2022-10-21T06:23:40.761Z,101139.06
2022-10-21T06:26:43.009Z,101136.53
2022-10-21T06:29:45.204Z,101133.34
2022-10-21T06:32:47.383Z,101134.00
2022-10-21T06:35:49.593Z,101136.88
2022-10-21T06:38:51.881Z,101138.63
2022-10-21T06:41:54.041Z,101151.47
2022-10-21T06:45:16.070Z,101152.16
2022-10-21T06:48:18.704Z,101151.59
2022-10-21T06:51:23.135Z,101146.19
2022-10-21T06:54:25.624Z,101142.03
2022-10-21T06:57:27.840Z,101141.41
2022-10-21T07:03:40.052Z,101122.00
2022-10-21T07:06:42.388Z,101121.00
2022-10-21T07:09:45.190Z,101116.91
2022-10-21T07:12:47.473Z,101116.63
2022-10-21T07:16:07.776Z,101129.47
2022-10-21T07:19:14.738Z,101122.94
2022-10-21T07:22:17.938Z,101127.19
2022-10-21T07:25:20.350Z,101133.72
2022-10-21T07:28:23.493Z,101141.09
2022-10-21T07:31:28.687Z,101135.69
2022-10-21T07:34:32.012Z,101135.28
2022-10-21T07:37:34.792Z,101139.03
2022-10-21T07:40:41.830Z,101142.63
2022-10-21T07:43:47.764Z,101130.28
2022-10-21T07:46:50.469Z,101131.84
2022-10-21T07:49:53.332Z,101123.25
2022-10-21T07:53:02.199Z,101124.06
2022-10-21T07:56:15.212Z,101136.44
2022-10-21T07:59:18.872Z,101126.13
2022-10-21T08:02:21.104Z,101108.56
2022-10-21T08:05:23.841Z,101112.28
2022-10-21T08:08:28.454Z,101106.03
2022-10-21T08:11:32.700Z,101082.44
2022-10-21T08:14:34.887Z,101082.00
2022-10-21T08:17:37.040Z,101080.53
2022-10-21T08:20:44.424Z,101088.50
2022-10-21T08:23:46.635Z,101074.88
2022-10-21T08:26:49.605Z,101068.19
2022-10-21T08:29:51.877Z,101066.53
2022-10-21T08:32:54.019Z,101067.03
2022-10-21T08:35:56.181Z,101062.44
2022-10-21T08:39:01.758Z,101067.31
2022-10-21T08:42:06.742Z,101067.06
2022-10-21T08:45:32.729Z,101073.63
2022-10-21T08:48:44.901Z,101056.28
2022-10-21T08:51:54.069Z,101046.16
2022-10-21T08:55:06.635Z,101045.53
2022-10-21T08:58:27.043Z,101053.91
2022-10-21T09:01:40.693Z,101034.81
2022-10-21T09:04:55.969Z,101034.97
2022-10-21T09:08:07.007Z,101030.09
2022-10-21T09:11:29.072Z,101030.13
2022-10-21T09:17:55.340Z,101024.00
2022-10-21T09:21:15.647Z,101023.22
2022-10-21T09:24:31.081Z,101016.25
2022-10-21T09:27:51.257Z,101020.44
2022-10-21T09:31:00.113Z,101018.88
2022-10-21T09:34:07.238Z,101007.31
2022-10-21T09:37:18.541Z,101008.44
2022-10-21T09:40:28.556Z,100997.25
2022-10-21T09:43:31.313Z,100988.84
2022-10-21T09:46:35.062Z,100979.97
2022-10-21T09:53:10.151Z,100975.91
2022-10-21T09:56:20.616Z,100974.72
2022-10-21T09:59:23.655Z,100973.06
2022-10-21T10:02:34.113Z,100968.81
2022-10-21T10:05:48.575Z,100960.31
2022-10-21T10:08:51.128Z,100948.34
2022-10-21T10:12:12.169Z,100950.25
2022-10-21T10:15:32.639Z,100963.28
2022-10-21T10:18:34.831Z,100954.00
2022-10-21T10:21:37.042Z,100937.75
2022-10-21T10:24:44.214Z,100934.34
2022-10-21T10:28:02.083Z,100936.25
2022-10-21T10:31:04.537Z,100928.97
2022-10-21T10:34:08.773Z,100917.09
2022-10-21T10:37:23.345Z,100916.72
2022-10-21T10:40:42.240Z,100911.34
2022-10-21T10:43:53.509Z,100909.44
2022-10-21T10:47:00.956Z,100896.34
2022-10-21T10:50:03.450Z,100900.94
2022-10-21T10:53:33.592Z,100892.44
2022-10-21T10:56:42.648Z,100884.34
2022-10-21T10:59:56.873Z,100877.47
2022-10-21T11:03:04.481Z,100864.44
2022-10-21T11:06:19.509Z,100864.78
2022-10-21T11:09:26.547Z,100865.16
2022-10-21T11:12:31.790Z,100864.34
2022-10-21T11:15:43.115Z,100861.34
2022-10-21T11:18:52.094Z,100861.34
2022-10-21T11:21:56.496Z,100854.78
2022-10-21T11:25:13.568Z,100858.28
2022-10-21T11:28:26.059Z,100842.91
2022-10-21T11:32:06.691Z,100857.50
2022-10-21T11:35:24.501Z,100836.31
2022-10-21T11:38:36.767Z,100826.66
2022-10-21T11:41:54.071Z,100820.88
2022-10-21T11:45:18.479Z,100810.09
2022-10-21T11:48:31.859Z,100803.94
2022-10-21T11:51:57.120Z,100797.41
2022-10-21T11:55:35.027Z,100806.28
2022-10-21T11:58:53.688Z,100792.03
2022-10-21T12:02:20.998Z,100794.38
2022-10-21T12:05:42.698Z,100778.22
2022-10-21T12:08:57.433Z,100785.50
2022-10-21T12:12:15.177Z,100775.88
2022-10-21T12:15:22.015Z,100770.84
2022-10-21T12:18:26.825Z,100771.19
2022-10-21T12:21:32.855Z,100771.91
2022-10-21T12:24:41.905Z,100770.72
2022-10-21T12:28:25.855Z,100765.59
2022-10-21T12:31:52.617Z,100762.88
2022-10-21T12:34:55.954Z,100764.72
2022-10-21T12:37:59.846Z,100757.34
2022-10-21T12:41:34.478Z,100753.03
2022-10-21T12:44:38.981Z,100765.28
2022-10-21T12:47:46.219Z,100759.78
2022-10-21T12:51:00.798Z,100742.81
2022-10-21T12:54:02.915Z,100750.09
2022-10-21T12:57:08.309Z,100753.16
2022-10-21T13:03:46.565Z,100742.31
2022-10-21T13:06:56.853Z,100733.81
2022-10-21T13:09:58.957Z,100733.38
2022-10-21T13:13:57.112Z,100731.41
2022-10-21T13:17:21.927Z,100725.22
2022-10-21T13:20:24.055Z,100729.06
2022-10-21T13:23:32.702Z,100718.66
2022-10-21T13:26:40.735Z,100720.59
2022-10-21T13:29:47.321Z,100713.22
2022-10-21T13:33:04.811Z,100710.84
2022-10-21T13:36:13.931Z,100711.22
2022-10-21T13:39:31.320Z,100703.53
2022-10-21T13:42:40.236Z,100701.94
2022-10-21T13:45:51.571Z,100704.22
2022-10-21T13:48:54.323Z,100699.63
2022-10-21T13:51:57.176Z,100696.50
2022-10-21T13:55:01.449Z,100696.50
2022-10-21T13:58:03.586Z,100686.88
2022-10-21T14:01:21.854Z,100691.47
2022-10-21T14:04:29.646Z,100688.78
2022-10-21T14:07:32.575Z,100678.38
2022-10-21T14:10:36.078Z,100674.06
2022-10-21T14:13:39.503Z,100685.59
2022-10-21T14:16:47.866Z,100669.44
2022-10-21T14:20:06.334Z,100672.50
2022-10-21T14:23:16.394Z,100677.09
2022-10-21T14:26:19.388Z,100670.19
2022-10-21T14:29:25.859Z,100659.75
2022-10-21T14:35:31.349Z,100664.72
2022-10-21T14:41:46.550Z,100661.97
2022-10-21T14:44:52.529Z,100668.47
2022-10-21T14:48:17.195Z,100651.91
2022-10-21T14:51:22.536Z,100654.59
2022-10-21T14:54:39.734Z,100646.88
2022-10-21T14:57:53.029Z,100654.19
2022-10-21T15:00:58.274Z,100658.78
2022-10-21T15:04:01.117Z,100654.88
2022-10-21T15:07:03.297Z,100656.00
2022-10-21T15:10:05.436Z,100649.50
2022-10-21T15:13:20.403Z,100639.88
2022-10-21T15:16:26.896Z,100627.91
2022-10-21T15:19:38.096Z,100624.47
2022-10-21T15:22:40.363Z,100632.88
2022-10-21T15:25:42.628Z,100613.63
2022-10-21T15:28:44.927Z,100610.94
2022-10-21T15:31:47.426Z,100614.75
2022-10-21T15:34:53.493Z,100624.75
2022-10-21T15:37:55.721Z,100617.03
2022-10-21T15:40:57.975Z,100618.19
2022-10-21T15:44:06.085Z,100621.97
2022-10-21T15:47:11.736Z,100627.34
2022-10-21T15:50:17.752Z,100625.03
2022-10-21T15:53:19.995Z,100623.44
2022-10-21T15:56:22.202Z,100613.84
2022-10-21T15:59:30.512Z,100616.84
2022-10-21T16:02:32.730Z,100619.53
2022-10-21T16:05:35.245Z,100615.31
2022-10-21T16:08:37.457Z,100625.59
2022-10-21T16:11:41.467Z,100626.41
2022-10-21T16:14:50.177Z,100630.56
2022-10-21T16:17:55.806Z,100637.09
2022-10-21T16:20:58.516Z,100639.78
2022-10-21T16:24:00.707Z,100636.66
2022-10-21T16:27:02.928Z,100641.25
2022-10-21T16:30:17.758Z,100651.22
2022-10-21T16:33:19.904Z,100644.28
2022-10-21T16:36:29.727Z,100647.31
2022-10-21T16:39:31.887Z,100643.06
2022-10-21T16:42:34.054Z,100654.97
2022-10-21T16:45:36.266Z,100639.94
2022-10-21T16:48:38.437Z,100649.91
2022-10-21T16:51:43.173Z,100627.66
2022-10-21T16:54:48.580Z,100624.53
2022-10-21T16:57:50.987Z,100630.69
2022-10-21T17:00:53.179Z,100615.72
2022-10-21T17:03:55.478Z,100623.34
2022-10-21T17:07:00.048Z,100631.41
2022-10-21T17:10:03.509Z,100637.13
2022-10-21T17:13:05.687Z,100632.88
2022-10-21T17:16:08.288Z,100627.84
2022-10-21T17:19:10.443Z,100622.06
2022-10-21T17:22:17.069Z,100624.72
2022-10-21T17:25:19.406Z,100640.06
2022-10-21T17:28:21.814Z,100625.38
2022-10-21T17:31:26.329Z,100636.97
2022-10-21T17:34:31.684Z,100632.69
2022-10-21T17:37:33.877Z,100633.84
2022-10-21T17:40:36.188Z,100631.16
2022-10-21T17:43:38.866Z,100624.22
2022-10-21T17:46:41.407Z,100622.25
2022-10-21T17:49:43.680Z,100624.94
2022-10-21T17:52:46.718Z,100629.53
2022-10-21T17:56:06.877Z,100632.22
2022-10-21T17:59:09.181Z,100634.47
2022-10-21T18:02:11.382Z,100629.09
2022-10-21T18:05:13.619Z,100617.91
2022-10-21T18:08:15.858Z,100620.59
2022-10-21T18:11:20.080Z,100619.06
2022-10-21T18:14:22.404Z,100610.22
2022-10-21T18:17:24.622Z,100610.56
2022-10-21T18:20:26.898Z,100609.00
2022-10-21T18:23:29.374Z,100606.69
2022-10-21T18:26:31.835Z,100610.16
2022-10-21T18:29:34.636Z,100610.91
2022-10-21T18:32:36.888Z,100611.25
2022-10-21T18:35:39.385Z,100613.16
2022-10-21T18:38:42.205Z,100602.00
2022-10-21T18:41:44.779Z,100604.69
2022-10-21T18:44:47.000Z,100598.53
2022-10-21T18:47:51.202Z,100586.25
2022-10-21T18:50:53.525Z,100574.28
2022-10-21T18:53:55.693Z,100575.84
2022-10-21T18:56:57.930Z,100566.25
2022-10-21T19:00:00.122Z,100565.47
2022-10-21T19:03:02.343Z,100551.25
2022-10-21T19:06:31.047Z,100566.56
2022-10-21T19:09:33.239Z,100558.09
2022-10-21T19:12:35.489Z,100558.09
2022-10-21T19:15:37.738Z,100556.56
2022-10-21T19:18:39.945Z,100553.88
2022-10-21T19:21:42.234Z,100547.72
2022-10-21T19:24:44.465Z,100549.19
2022-10-21T19:27:46.700Z,100564.94
2022-10-21T19:30:48.873Z,100552.66
2022-10-21T19:33:51.516Z,100561.84
2022-10-21T19:36:53.869Z,100557.94
2022-10-21T19:39:56.123Z,100551.78
2022-10-21T19:42:58.440Z,100552.56
2022-10-21T19:46:05.846Z,100550.66
2022-10-21T19:49:09.315Z,100552.16
2022-10-21T19:52:11.502Z,100544.88
2022-10-21T19:55:13.717Z,100539.84
2022-10-21T19:58:15.944Z,100541.75
2022-10-21T20:01:21.816Z,100538.31
2022-10-21T20:04:24.807Z,100538.63
2022-10-21T20:07:27.027Z,100546.69
2022-10-21T20:10:29.318Z,100538.22
2022-10-21T20:13:31.834Z,100527.84
2022-10-21T20:16:37.501Z,100519.78
2022-10-21T20:19:39.653Z,100523.59
2022-10-21T20:22:42.326Z,100535.47
2022-10-21T20:25:56.825Z,100531.97
2022-10-21T20:29:00.653Z,100531.97
2022-10-21T20:32:02.986Z,100537.31
2022-10-21T20:35:05.865Z,100546.50
2022-10-21T20:38:09.570Z,100547.28
2022-10-21T20:41:14.226Z,100548.41
2022-10-21T20:44:19.473Z,100544.97
2022-10-21T20:47:21.644Z,100543.38
2022-10-21T20:50:25.183Z,100541.06
2022-10-21T20:53:31.058Z,100540.28
2022-10-21T20:56:37.021Z,100529.53
2022-10-21T20:59:39.930Z,100534.91
2022-10-21T21:02:42.151Z,100534.91
2022-10-21T21:05:44.353Z,100541.41
2022-10-21T21:08:53.348Z,100550.59
2022-10-21T21:12:09.625Z,100542.13
2022-10-21T21:15:11.914Z,100544.34
2022-10-21T21:18:14.126Z,100536.75
2022-10-21T21:21:21.115Z,100533.28
2022-10-21T21:24:23.358Z,100519.06
2022-10-21T21:27:25.517Z,100526.34
2022-10-21T21:30:27.672Z,100534.06
2022-10-21T21:33:30.505Z,100528.69
2022-10-21T21:36:32.884Z,100510.25
2022-10-21T21:39:35.158Z,100514.06
2022-10-21T21:42:37.410Z,100519.44
2022-10-21T21:45:39.764Z,100502.53
2022-10-21T21:48:44.532Z,100505.22
2022-10-21T21:51:48.988Z,100510.19
2022-10-21T21:54:54.592Z,100504.81
2022-10-21T21:57:56.802Z,100496.75
2022-10-21T22:01:09.091Z,100497.09
2022-10-21T22:04:11.374Z,100492.88
2022-10-21T22:07:13.573Z,100487.50
2022-10-21T22:10:15.779Z,100490.19
2022-10-21T22:13:17.943Z,100494.75
2022-10-21T22:16:22.221Z,100493.91
2022-10-21T22:19:27.552Z,100501.25
2022-10-21T22:22:29.714Z,100507.75
2022-10-21T22:25:31.901Z,100511.56
2022-10-21T22:28:35.101Z,100511.56
2022-10-21T22:31:37.284Z,100510.00
2022-10-21T22:34:40.080Z,100498.81
2022-10-21T22:37:42.556Z,100496.59
2022-10-21T22:40:44.925Z,100499.63
2022-10-21T22:43:47.098Z,100491.56
2022-10-21T22:46:49.967Z,100492.72
2022-10-21T22:49:52.138Z,100488.03
2022-10-21T22:52:54.299Z,100491.13
2022-10-21T22:55:56.915Z,100483.09
2022-10-21T22:58:59.530Z,100488.03
2022-10-21T23:02:01.696Z,100494.19
2022-10-21T23:05:04.078Z,100493.41
2022-10-21T23:08:06.369Z,100491.03
2022-10-21T23:11:08.545Z,100488.34
2022-10-21T23:14:10.707Z,100486.81
2022-10-21T23:17:12.908Z,100486.03
2022-10-21T23:20:15.278Z,100479.88
2022-10-21T23:23:17.456Z,100492.50
2022-10-21T23:26:19.843Z,100479.88
2022-10-21T23:29:22.036Z,100477.56
2022-10-21T23:32:24.344Z,100467.19
2022-10-21T23:35:26.493Z,100469.88
2022-10-21T23:38:28.635Z,100464.84
2022-10-21T23:41:31.051Z,100465.97
2022-10-21T23:44:33.285Z,100474.78
2022-10-21T23:47:35.835Z,100463.31
2022-10-21T23:50:42.248Z,100455.25
2022-10-21T23:53:46.088Z,100465.97
2022-10-21T23:56:48.676Z,100470.56
2022-10-21T23:59:50.896Z,100480.50
